Time;durP1;ratioP1;P1;durP2;ratioP2;P2;SDS_P1;SDS_P2;PMS_P1;PMS_P2;Temp;Humidity;BMP_temperature;BMP_pressure;BME280_temperature;BME280_humidity;BME280_pressure;Samples;Min_cycle;Max_cycle;Signal;HPM_P1;HPM_P2
2024/01/30 00:01:46;;;;;;;75.20;36.40;;;;;;;-6.21;68.34;103871.79;107591;1256;98117;-65
2024/01/30 00:04:16;;;;;;;82.40;36.50;;;;;;;-6.21;68.69;103872.13;107627;1253;97902;-66
2024/01/30 00:06:45;;;;;;;74.50;35.80;;;;;;;-6.18;68.49;103874.33;107596;1256;111766;-66
2024/01/30 00:09:13;;;;;;;88.70;38.70;;;;;;;-6.16;68.66;103871.93;107587;1254;108312;-66
2024/01/30 00:11:42;;;;;;;79.70;37.00;;;;;;;-6.14;68.63;103873.95;107599;1254;107756;-64
2024/01/30 00:14:10;;;;;;;86.60;38.50;;;;;;;-6.10;68.79;103871.58;107620;1253;97911;-65
2024/01/30 00:16:39;;;;;;;89.60;40.00;;;;;;;-6.08;68.54;103871.47;107408;1254;98364;-67
2024/01/30 00:19:08;;;;;;;85.60;38.90;;;;;;;-6.06;68.47;103874.15;107565;1254;111577;-66
2024/01/30 00:21:37;;;;;;;83.70;36.00;;;;;;;-6.07;68.38;103867.98;107623;1254;107198;-66
2024/01/30 00:24:05;;;;;;;81.00;41.40;;;;;;;-6.10;68.60;103871.77;107572;1256;108215;-66
2024/01/30 00:26:34;;;;;;;78.80;36.70;;;;;;;-6.10;68.56;103876.83;107574;1253;97845;-65
2024/01/30 00:29:03;;;;;;;88.60;37.50;;;;;;;-6.12;68.28;103871.71;107483;1253;98391;-65
2024/01/30 00:31:32;;;;;;;83.20;37.90;;;;;;;-6.16;68.17;103869.30;107557;1251;111872;-65
2024/01/30 00:34:00;;;;;;;85.80;37.40;;;;;;;-6.21;68.27;103867.60;107491;1251;108171;-65
2024/01/30 00:36:30;;;;;;;82.40;38.00;;;;;;;-6.20;68.41;103862.37;107503;1251;109250;-66
2024/01/30 00:38:58;;;;;;;88.50;38.10;;;;;;;-6.22;68.41;103862.65;107498;1251;97821;-65
2024/01/30 00:41:27;;;;;;;88.70;37.60;;;;;;;-6.20;68.18;103862.19;107541;1254;97761;-66
2024/01/30 00:43:55;;;;;;;78.00;36.00;;;;;;;-6.20;68.23;103864.30;107501;1251;110926;-66
2024/01/30 00:46:23;;;;;;;91.10;37.20;;;;;;;-6.22;68.31;103862.13;107467;1251;109472;-66
2024/01/30 00:48:51;;;;;;;89.90;36.50;;;;;;;-6.24;68.15;103864.34;107511;1256;108310;-66
2024/01/30 00:51:20;;;;;;;82.40;36.60;;;;;;;-6.29;68.38;103865.95;107575;1251;97856;-68
2024/01/30 00:53:48;;;;;;;71.20;35.40;;;;;;;-6.31;67.96;103866.23;107528;1251;98366;-67
2024/01/30 00:56:18;;;;;;;84.50;37.30;;;;;;;-6.32;67.88;103867.41;107537;1251;112125;-66
2024/01/30 00:58:46;;;;;;;82.90;36.50;;;;;;;-6.35;67.87;103868.88;107540;1251;107845;-67
2024/01/30 01:01:15;;;;;;;81.10;37.70;;;;;;;-6.38;68.03;103871.92;107493;1254;108001;-67
2024/01/30 01:03:43;;;;;;;77.90;34.90;;;;;;;-6.41;67.79;103865.39;107624;1251;97713;-66
2024/01/30 01:06:12;;;;;;;75.30;35.70;;;;;;;-6.42;67.98;103864.83;107570;1251;97804;-66
2024/01/30 01:08:40;;;;;;;72.40;33.60;;;;;;;-6.43;67.90;103860.42;107541;1251;111818;-66
2024/01/30 01:11:10;;;;;;;82.80;35.80;;;;;;;-6.45;68.08;103858.28;107527;1251;108024;-66
2024/01/30 01:13:38;;;;;;;83.30;39.00;;;;;;;-6.47;68.15;103858.55;107613;1256;108133;-66
2024/01/30 01:16:06;;;;;;;86.30;37.80;;;;;;;-6.48;68.17;103860.25;107536;1251;97841;-66
2024/01/30 01:18:35;;;;;;;87.50;38.00;;;;;;;-6.51;67.91;103860.52;107588;1251;98511;-65
2024/01/30 01:21:04;;;;;;;87.50;37.80;;;;;;;-6.54;67.99;103856.05;107571;1254;110510;-65
2024/01/30 01:23:33;;;;;;;86.90;36.10;;;;;;;-6.56;67.74;103850.41;107550;1250;107263;-66
2024/01/30 01:26:01;;;;;;;81.10;35.60;;;;;;;-6.61;67.99;103850.79;107566;1251;107636;-64
2024/01/30 01:28:29;;;;;;;78.90;35.20;;;;;;;-6.64;67.87;103848.93;107571;1251;97850;-64
2024/01/30 01:31:04;;;;;;;81.70;36.40;;;;;;;-6.65;68.12;103848.73;107635;1254;97711;-66
2024/01/30 01:33:34;;;;;;;78.40;34.90;;;;;;;-6.64;68.25;103849.09;107588;1254;111935;-66
2024/01/30 01:36:03;;;;;;;76.20;36.10;;;;;;;-6.64;68.08;103844.75;107613;1254;108041;-65
2024/01/30 01:38:31;;;;;;;84.30;36.90;;;;;;;-6.63;67.86;103846.16;107607;1253;107710;-68
2024/01/30 01:41:00;;;;;;;80.30;36.80;;;;;;;-6.62;68.10;103846.70;107606;1251;97822;-67
2024/01/30 01:43:28;;;;;;;74.60;34.60;;;;;;;-6.61;68.00;103844.83;107601;1251;97876;-69
2024/01/30 01:45:57;;;;;;;79.00;35.30;;;;;;;-6.63;67.88;103846.16;107571;1251;112341;-66
2024/01/30 01:48:26;;;;;;;83.00;36.50;;;;;;;-6.63;68.00;103845.29;107629;1251;107849;-66
2024/01/30 01:50:55;;;;;;;76.40;32.90;;;;;;;-6.64;67.69;103843.33;107558;1251;108125;-67
2024/01/30 01:53:24;;;;;;;72.90;34.30;;;;;;;-6.69;67.48;103839.16;107626;1251;97841;-67
2024/01/30 01:55:54;;;;;;;76.50;34.80;;;;;;;-6.75;67.70;103839.66;107560;1251;98066;-66
2024/01/30 01:58:28;;;;;;;73.70;33.50;;;;;;;-6.82;67.59;103839.10;107630;1251;111854;-66
2024/01/30 02:00:58;;;;;;;74.30;34.90;;;;;;;-6.87;67.49;103833.31;107637;1256;106338;-65
2024/01/30 02:03:27;;;;;;;73.90;34.60;;;;;;;-6.92;67.55;103834.91;107654;1250;108255;-66
2024/01/30 02:05:56;;;;;;;71.00;31.90;;;;;;;-6.95;67.62;103830.64;107620;1251;97856;-65
2024/01/30 02:08:24;;;;;;;80.00;34.60;;;;;;;-6.99;67.40;103829.98;107668;1250;97732;-65
2024/01/30 02:10:53;;;;;;;79.10;32.00;;;;;;;-7.07;67.68;103826.05;107574;1251;112239;-65
2024/01/30 02:13:22;;;;;;;73.90;32.70;;;;;;;-7.15;67.64;103825.58;107549;1254;107900;-64
2024/01/30 02:15:52;;;;;;;68.00;31.90;;;;;;;-7.19;67.69;103822.30;107570;1251;106285;-65
2024/01/30 02:18:21;;;;;;;77.50;35.00;;;;;;;-7.21;67.50;103819.08;107631;1251;98001;-66
2024/01/30 02:20:53;;;;;;;67.50;33.60;;;;;;;-7.26;67.62;103814.74;107583;1251;97704;-66
2024/01/30 02:23:27;;;;;;;80.40;33.90;;;;;;;-7.28;67.76;103817.45;107594;1254;112072;-66
2024/01/30 02:25:55;;;;;;;;;;;;;;;-7.29;67.79;103820.05;107496;1251;107646;-67
2024/01/30 02:28:23;;;;;;;65.80;30.00;;;;;;;-7.30;67.63;103817.92;107484;1252;107105;-65
2024/01/30 02:30:52;;;;;;;76.20;31.30;;;;;;;-7.29;67.73;103821.95;107529;1251;97829;-65
2024/01/30 02:33:22;;;;;;;76.30;34.20;;;;;;;-7.28;67.92;103824.80;107473;1250;98366;-65
2024/01/30 02:35:50;;;;;;;72.50;32.50;;;;;;;-7.28;67.78;103824.63;107522;1251;111712;-66
2024/01/30 02:38:18;;;;;;;74.20;34.10;;;;;;;-7.29;67.95;103831.02;107470;1251;108005;-66
2024/01/30 02:40:47;;;;;;;80.20;32.80;;;;;;;-7.32;67.59;103828.50;107424;1254;108342;-67
2024/01/30 02:43:16;;;;;;;69.30;31.10;;;;;;;-7.38;67.36;103826.02;107374;1251;97837;-65
2024/01/30 02:45:45;;;;;;;73.00;31.60;;;;;;;-7.40;67.73;103821.58;107607;1256;98405;-65
2024/01/30 02:48:13;;;;;;;72.30;33.30;;;;;;;-7.40;67.59;103821.59;107454;1251;111695;-65
2024/01/30 02:50:41;;;;;;;77.70;32.80;;;;;;;-7.41;67.51;103821.56;107496;1251;107844;-65
2024/01/30 02:53:10;;;;;;;70.20;32.50;;;;;;;-7.45;67.69;103812.16;107459;1251;107752;-65
2024/01/30 02:55:38;;;;;;;71.40;33.20;;;;;;;-7.46;67.80;103811.25;107460;1251;97906;-67
2024/01/30 02:58:07;;;;;;;76.40;31.20;;;;;;;-7.48;67.73;103806.65;107512;1253;98459;-65
2024/01/30 03:00:35;;;;;;;72.20;33.00;;;;;;;-7.46;67.49;103803.91;107568;1251;110666;-65
2024/01/30 03:03:04;;;;;;;71.90;34.30;;;;;;;-7.43;67.89;103799.16;107624;1251;107938;-65
2024/01/30 03:05:33;;;;;;;70.40;32.40;;;;;;;-7.42;67.82;103795.36;107486;1251;107425;-65
2024/01/30 03:08:02;;;;;;;70.20;31.90;;;;;;;-7.44;67.56;103797.89;107568;1251;97969;-65
2024/01/30 03:10:30;;;;;;;71.20;30.70;;;;;;;-7.47;67.71;103797.79;107661;1251;97790;-66
2024/01/30 03:12:59;;;;;;;75.30;33.60;;;;;;;-7.44;67.91;103793.36;107478;1250;111837;-65
2024/01/30 03:15:27;;;;;;;72.60;32.40;;;;;;;-7.41;67.95;103792.62;107573;1250;107972;-68
2024/01/30 03:17:56;;;;;;;69.70;31.30;;;;;;;-7.39;68.04;103792.86;107555;1254;108245;-67
2024/01/30 03:20:24;;;;;;;70.30;33.30;;;;;;;-7.37;68.11;103790.30;107575;1250;97874;-66
2024/01/30 03:22:55;;;;;;;78.90;35.40;;;;;;;-7.36;67.94;103788.95;107503;1251;98383;-65
2024/01/30 03:25:24;;;;;;;68.40;31.90;;;;;;;-7.35;67.97;103787.05;107519;1251;110198;-65
2024/01/30 03:27:52;;;;;;;78.90;32.70;;;;;;;-7.34;68.24;103785.14;107531;1251;107885;-64
2024/01/30 03:30:23;;;;;;;76.40;33.10;;;;;;;-7.37;68.02;103782.42;107551;1251;109279;-66
2024/01/30 03:32:51;;;;;;;75.20;31.30;;;;;;;-7.40;67.79;103780.11;107529;1251;97896;-65
2024/01/30 03:35:20;;;;;;;67.90;29.70;;;;;;;-7.38;67.72;103783.98;107500;1251;97920;-66
2024/01/30 03:37:48;;;;;;;73.70;32.50;;;;;;;-7.36;68.10;103787.89;107504;1251;111222;-66
2024/01/30 03:40:17;;;;;;;74.10;33.70;;;;;;;-7.33;68.10;103789.89;107452;1250;107929;-65
2024/01/30 03:42:45;;;;;;;72.80;33.10;;;;;;;-7.33;67.75;103789.41;107601;1251;107315;-66
2024/01/30 03:45:14;;;;;;;74.30;31.10;;;;;;;-7.35;67.71;103792.82;107588;1253;97860;-65
2024/01/30 03:47:43;;;;;;;67.90;32.20;;;;;;;-7.38;67.90;103794.09;107513;1256;98449;-65
2024/01/30 03:50:12;;;;;;;69.10;30.70;;;;;;;-7.37;67.69;103794.66;107596;1251;112754;-66
2024/01/30 03:52:40;;;;;;;78.20;32.00;;;;;;;-7.39;67.62;103794.78;107472;1250;108245;-65
2024/01/30 03:55:08;;;;;;;74.80;32.30;;;;;;;-7.41;67.36;103789.80;107533;1251;108146;-66
2024/01/30 03:57:36;;;;;;;68.10;31.70;;;;;;;-7.41;67.82;103789.81;107625;1251;97724;-65
2024/01/30 04:00:06;;;;;;;77.10;32.20;;;;;;;-7.42;67.77;103790.63;107528;1251;97727;-66
2024/01/30 04:02:39;;;;;;;;;;;;;;;-7.47;67.97;103782.80;107541;1251;110226;-66
2024/01/30 04:05:07;;;;;;;88.40;32.20;;;;;;;-7.46;67.97;103788.94;107587;1250;108114;-67
2024/01/30 04:07:36;;;;;;;73.10;31.50;;;;;;;-7.46;67.82;103788.60;107547;1251;107579;-67
2024/01/30 04:10:05;;;;;;;64.90;30.50;;;;;;;-7.46;67.73;103792.05;107558;1251;97941;-66
2024/01/30 04:12:34;;;;;;;62.10;30.70;;;;;;;-7.49;67.68;103791.45;107573;1251;97727;-66
2024/01/30 04:15:03;;;;;;;69.80;32.00;;;;;;;-7.52;67.73;103791.70;107643;1251;110685;-67
2024/01/30 04:17:32;;;;;;;73.40;31.50;;;;;;;-7.53;67.62;103788.18;107593;1251;107692;-65
2024/01/30 04:20:01;;;;;;;65.70;27.90;;;;;;;-7.53;67.60;103788.88;107481;1251;107504;-66
2024/01/30 04:22:29;;;;;;;82.40;33.00;;;;;;;-7.57;67.62;103787.17;107471;1251;97810;-65
2024/01/30 04:24:58;;;;;;;75.00;32.60;;;;;;;-7.62;67.52;103784.02;107577;1255;97867;-66
2024/01/30 04:27:26;;;;;;;78.50;32.10;;;;;;;-7.65;67.21;103785.84;107534;1250;111121;-67
2024/01/30 04:29:54;;;;;;;87.20;35.90;;;;;;;-7.66;67.49;103781.77;107567;1251;107365;-66
2024/01/30 04:32:22;;;;;;;76.30;32.60;;;;;;;-7.66;67.67;103786.14;107584;1251;107755;-66
2024/01/30 04:34:51;;;;;;;75.20;34.00;;;;;;;-7.62;67.52;103790.98;107487;1251;97872;-66
2024/01/30 04:37:19;;;;;;;73.50;30.70;;;;;;;-7.58;67.99;103793.05;107521;1251;99338;-65
2024/01/30 04:39:48;;;;;;;66.40;30.00;;;;;;;-7.56;67.76;103788.77;107496;1251;111803;-65
2024/01/30 04:42:16;;;;;;;74.00;31.90;;;;;;;-7.54;67.82;103790.55;107568;1253;108439;-65
2024/01/30 04:44:45;;;;;;;76.60;29.00;;;;;;;-7.55;67.54;103793.52;107614;1253;107117;-66
2024/01/30 04:47:13;;;;;;;72.00;30.20;;;;;;;-7.59;67.22;103795.28;107480;1251;97830;-66
2024/01/30 04:49:42;;;;;;;64.60;30.00;;;;;;;-7.62;67.60;103801.80;107533;1251;97727;-65
2024/01/30 04:52:11;;;;;;;59.10;28.90;;;;;;;-7.62;67.78;103800.92;107523;1251;110905;-65
2024/01/30 04:54:39;;;;;;;75.70;30.90;;;;;;;-7.62;67.43;103802.32;107601;1251;108328;-66
2024/01/30 04:57:11;;;;;;;65.60;30.50;;;;;;;-7.63;67.75;103804.37;107514;1251;108260;-66
2024/01/30 04:59:40;;;;;;;59.50;27.40;;;;;;;-7.63;67.47;103800.72;107580;1251;97857;-66
2024/01/30 05:02:08;;;;;;;62.70;27.10;;;;;;;-7.62;67.35;103797.45;107537;1254;97903;-66
2024/01/30 05:04:37;;;;;;;60.20;28.10;;;;;;;-7.65;67.49;103803.95;107543;1251;111494;-68
2024/01/30 05:07:05;;;;;;;65.90;28.20;;;;;;;-7.71;67.18;103803.73;107587;1254;108008;-67
2024/01/30 05:09:33;;;;;;;60.30;28.40;;;;;;;-7.74;67.31;103799.64;107545;1253;105990;-66
2024/01/30 05:12:02;;;;;;;68.10;27.40;;;;;;;-7.79;67.27;103802.23;107574;1252;97908;-66
2024/01/30 05:14:30;;;;;;;61.80;25.60;;;;;;;-7.85;67.32;103804.09;107545;1253;97841;-66
2024/01/30 05:16:59;;;;;;;61.70;26.20;;;;;;;-7.89;67.58;103809.70;107446;1254;112024;-65
2024/01/30 05:19:27;;;;;;;61.10;28.20;;;;;;;-7.89;67.76;103806.41;107592;1253;108099;-66
2024/01/30 05:21:56;;;;;;;59.90;25.30;;;;;;;-7.92;67.70;103801.58;107539;1254;107251;-66
2024/01/30 05:24:25;;;;;;;62.30;26.60;;;;;;;-7.95;68.04;103802.16;107597;1253;98008;-67
2024/01/30 05:26:55;;;;;;;60.90;27.60;;;;;;;-7.95;67.83;103804.78;107526;1254;97906;-66
2024/01/30 05:29:24;;;;;;;58.10;26.70;;;;;;;-7.93;67.88;103799.80;107531;1251;111709;-66
2024/01/30 05:31:52;;;;;;;53.80;25.80;;;;;;;-7.89;67.73;103799.77;107591;1251;107614;-67
2024/01/30 05:34:21;;;;;;;60.00;27.20;;;;;;;-7.84;67.97;103793.84;107531;1250;108437;-66
2024/01/30 05:36:49;;;;;;;57.90;26.90;;;;;;;-7.79;67.81;103800.14;107585;1251;97831;-66
2024/01/30 05:39:18;;;;;;;69.50;28.60;;;;;;;-7.83;67.89;103803.99;107621;1251;97818;-67
2024/01/30 05:41:46;;;;;;;63.80;29.10;;;;;;;-7.88;67.74;103807.84;107536;1254;111632;-66
2024/01/30 05:44:14;;;;;;;55.80;26.70;;;;;;;-7.87;67.66;103806.98;107549;1254;106798;-65
2024/01/30 05:46:43;;;;;;;54.50;25.90;;;;;;;-7.86;67.89;103806.50;107541;1251;107776;-64
2024/01/30 05:49:11;;;;;;;55.00;25.00;;;;;;;-7.83;67.83;103809.76;107613;1251;97858;-66
2024/01/30 05:51:40;;;;;;;64.50;27.30;;;;;;;-7.81;67.72;103802.99;107537;1251;98379;-67
2024/01/30 05:54:09;;;;;;;54.10;25.60;;;;;;;-7.76;67.91;103803.05;107588;1250;111311;-65
2024/01/30 05:56:37;;;;;;;55.90;24.30;;;;;;;-7.70;68.10;103804.13;107573;1251;107200;-66
2024/01/30 05:59:05;;;;;;;58.40;26.40;;;;;;;-7.63;68.11;103806.48;107527;1250;108112;-67
2024/01/30 06:01:34;;;;;;;62.10;25.10;;;;;;;-7.57;67.90;103810.00;107534;1251;97818;-66
2024/01/30 06:04:03;;;;;;;55.60;25.40;;;;;;;-7.56;67.75;103805.32;107548;1251;97721;-66
2024/01/30 06:06:32;;;;;;;66.10;25.40;;;;;;;-7.59;67.63;103800.19;107611;1251;112230;-66
2024/01/30 06:09:00;;;;;;;55.70;25.20;;;;;;;-7.59;67.33;103794.56;107514;1251;108335;-65
2024/01/30 06:11:28;;;;;;;69.90;26.00;;;;;;;-7.59;67.59;103791.11;107542;1251;108659;-64
2024/01/30 06:13:56;;;;;;;54.70;24.20;;;;;;;-7.57;67.37;103788.04;107526;1251;97841;-64
2024/01/30 06:16:29;;;;;;;58.40;26.10;;;;;;;-7.53;67.66;103788.88;107534;1251;98353;-66
2024/01/30 06:18:59;;;;;;;51.40;24.70;;;;;;;-7.48;67.60;103787.46;107574;1251;109738;-65
2024/01/30 06:21:27;;;;;;;64.20;26.30;;;;;;;-7.42;67.66;103792.39;107532;1250;107777;-65
2024/01/30 06:23:56;;;;;;;52.80;24.50;;;;;;;-7.36;67.72;103790.16;107532;1251;105999;-65
2024/01/30 06:26:24;;;;;;;61.40;25.40;;;;;;;-7.33;67.49;103796.72;107515;1254;97941;-66
2024/01/30 06:28:53;;;;;;;57.70;25.40;;;;;;;-7.28;67.55;103800.89;107539;1254;98391;-64
2024/01/30 06:31:21;;;;;;;55.90;24.90;;;;;;;-7.21;67.35;103794.68;107529;1251;111832;-65
2024/01/30 06:33:50;;;;;;;68.30;26.20;;;;;;;-7.13;67.46;103791.09;107562;1254;108568;-64
2024/01/30 06:36:19;;;;;;;67.90;29.20;;;;;;;-7.00;67.94;103788.39;107594;1256;108094;-65
2024/01/30 06:38:47;;;;;;;68.70;27.80;;;;;;;-6.91;67.51;103786.41;107565;1254;97833;-67
2024/01/30 06:41:15;;;;;;;66.70;27.60;;;;;;;-6.86;67.74;103788.52;107547;1251;97844;-63
2024/01/30 06:43:45;;;;;;;62.80;26.50;;;;;;;-6.84;67.49;103787.19;107567;1254;111309;-67
2024/01/30 06:46:13;;;;;;;47.10;23.90;;;;;;;-6.81;67.51;103789.20;107625;1251;107742;-66
2024/01/30 06:48:44;;;;;;;61.60;27.40;;;;;;;-6.76;67.28;103784.30;107586;1251;107769;-65
2024/01/30 06:51:13;;;;;;;62.90;26.00;;;;;;;-6.70;67.52;103784.16;107548;1251;98137;-67
2024/01/30 06:53:45;;;;;;;59.80;25.80;;;;;;;-6.62;67.84;103784.23;107612;1255;97928;-65
2024/01/30 06:56:14;;;;;;;61.40;25.90;;;;;;;-6.49;68.16;103775.02;107547;1251;111583;-67
2024/01/30 06:58:42;;;;;;;59.60;26.50;;;;;;;-6.39;68.02;103769.38;107626;1251;108407;-63
2024/01/30 07:01:11;;;;;;;58.80;27.10;;;;;;;-6.27;68.20;103764.17;107511;1251;107249;-67
2024/01/30 07:03:40;;;;;;;66.30;25.80;;;;;;;-6.14;68.15;103761.92;107572;1254;97701;-66
2024/01/30 07:06:13;;;;;;;61.00;28.00;;;;;;;-6.02;68.36;103760.70;107567;1251;98377;-64
2024/01/30 07:08:41;;;;;;;79.20;30.00;;;;;;;-5.90;68.27;103756.64;107600;1251;111496;-65
2024/01/30 07:11:09;;;;;;;68.70;30.10;;;;;;;-5.81;68.30;103760.73;107603;1251;107760;-66
2024/01/30 07:13:38;;;;;;;89.10;37.00;;;;;;;-5.71;68.50;103754.35;107525;1249;107127;-64
2024/01/30 07:16:06;;;;;;;82.00;33.20;;;;;;;-5.59;68.81;103749.97;107526;1255;97739;-66
2024/01/30 07:18:35;;;;;;;84.20;34.80;;;;;;;-5.47;68.86;103749.40;107607;1251;97887;-66
2024/01/30 07:21:04;;;;;;;78.80;33.10;;;;;;;-5.36;68.80;103748.45;107574;1251;111723;-66
2024/01/30 07:23:34;;;;;;;70.10;31.10;;;;;;;-5.26;68.97;103747.49;107616;1251;107995;-67
2024/01/30 07:26:02;;;;;;;68.50;31.30;;;;;;;-5.16;69.08;103742.48;107512;1251;108273;-66
2024/01/30 07:28:30;;;;;;;81.90;33.90;;;;;;;-5.07;68.96;103737.30;107540;1250;98007;-64
2024/01/30 07:30:59;;;;;;;75.40;33.70;;;;;;;-4.99;68.82;103735.41;107568;1253;97705;-65
2024/01/30 07:33:27;;;;;;;93.80;35.80;;;;;;;-4.89;68.88;103734.74;107598;1251;111730;-65
2024/01/30 07:35:56;;;;;;;81.90;34.30;;;;;;;-4.77;68.77;103727.68;107547;1251;108388;-64
2024/01/30 07:38:26;;;;;;;79.00;35.00;;;;;;;-4.66;69.08;103730.38;107561;1254;107872;-64
2024/01/30 07:40:54;;;;;;;86.20;36.20;;;;;;;-4.52;69.14;103729.98;107503;1253;97898;-65
2024/01/30 07:43:23;;;;;;;84.60;36.80;;;;;;;-4.38;69.29;103726.60;107450;1254;98379;-63
2024/01/30 07:45:52;;;;;;;91.20;38.30;;;;;;;-4.26;69.36;103729.84;107594;1251;112124;-64
2024/01/30 07:48:21;;;;;;;89.20;40.80;;;;;;;-4.13;69.49;103725.90;107575;1251;108330;-64
2024/01/30 07:50:49;;;;;;;78.80;36.40;;;;;;;-3.97;69.62;103722.71;107529;1251;107619;-66
2024/01/30 07:53:17;;;;;;;78.20;37.20;;;;;;;-3.83;69.36;103720.55;107479;1251;97704;-63
2024/01/30 07:55:46;;;;;;;78.90;36.00;;;;;;;-3.70;69.42;103720.96;107527;1251;97832;-64
2024/01/30 07:58:15;;;;;;;83.50;38.10;;;;;;;-3.58;69.51;103716.45;107713;1254;110975;-65
2024/01/30 08:00:43;;;;;;;81.20;37.00;;;;;;;-3.43;69.59;103714.42;107555;1251;108551;-65
2024/01/30 08:03:12;;;;;;;88.90;38.10;;;;;;;-3.28;69.57;103709.06;107526;1251;109712;-64
2024/01/30 08:05:40;;;;;;;84.10;37.40;;;;;;;-3.13;69.60;103705.61;107558;1251;98585;-66
2024/01/30 08:08:09;;;;;;;91.20;40.10;;;;;;;-2.98;69.53;103700.42;107534;1251;97729;-66
2024/01/30 08:10:37;;;;;;;78.30;37.90;;;;;;;-2.82;69.60;103698.55;107616;1251;111513;-65
2024/01/30 08:13:05;;;;;;;74.00;35.10;;;;;;;-2.68;69.41;103694.52;107556;1251;108086;-64
2024/01/30 08:15:34;;;;;;;70.00;35.40;;;;;;;-2.55;69.65;103694.35;107524;1251;108317;-65
2024/01/30 08:18:03;;;;;;;50.90;25.80;;;;;;;-2.40;69.92;103692.09;107526;1251;98438;-65
2024/01/30 08:20:31;;;;;;;52.80;26.70;;;;;;;-2.27;70.01;103687.52;107547;1251;98119;-63
2024/01/30 08:23:00;;;;;;;61.40;28.10;;;;;;;-2.13;70.21;103689.42;107543;1251;111564;-64
2024/01/30 08:25:28;;;;;;;56.30;28.70;;;;;;;-1.97;70.13;103683.27;107451;1254;108186;-64
2024/01/30 08:27:57;;;;;;;58.00;29.30;;;;;;;-1.86;69.97;103678.11;107512;1251;108555;-65
2024/01/30 08:30:26;;;;;;;64.60;30.90;;;;;;;-1.72;69.94;103678.96;107503;1254;97832;-65
2024/01/30 08:32:55;;;;;;;62.60;29.60;;;;;;;-1.62;69.59;103672.90;107576;1251;97811;-66
2024/01/30 08:35:23;;;;;;;58.60;31.00;;;;;;;-1.45;69.79;103675.69;107548;1251;112303;-65
2024/01/30 08:37:51;;;;;;;52.10;29.40;;;;;;;-1.27;69.88;103676.38;107551;1250;108581;-64
2024/01/30 08:40:20;;;;;;;48.00;26.50;;;;;;;-1.06;69.82;103676.52;107562;1251;108259;-65
2024/01/30 08:42:48;;;;;;;60.00;28.60;;;;;;;-0.86;69.51;103676.48;107510;1251;98264;-65
2024/01/30 08:45:16;;;;;;;54.10;28.20;;;;;;;-0.70;69.29;103667.40;107079;1251;670572;-63
2024/01/30 08:47:44;;;;;;;51.90;27.30;;;;;;;-0.57;68.99;103663.77;107595;1251;110836;-63
2024/01/30 08:50:13;;;;;;;53.80;26.80;;;;;;;-0.40;68.84;103662.43;107558;1251;107692;-64
2024/01/30 08:52:41;;;;;;;51.60;26.60;;;;;;;-0.19;69.24;103661.98;107567;1251;107966;-67
2024/01/30 08:55:10;;;;;;;48.40;26.50;;;;;;;0.01;69.01;103659.02;107576;1251;97851;-63
2024/01/30 08:57:38;;;;;;;54.90;27.60;;;;;;;0.19;68.91;103648.29;107596;1251;98399;-65
2024/01/30 09:00:09;;;;;;;52.60;29.00;;;;;;;0.44;68.79;103648.48;107494;1251;111785;-64
2024/01/30 09:02:37;;;;;;;60.00;32.60;;;;;;;0.69;68.59;103647.77;107525;1251;107339;-64
2024/01/30 09:05:06;;;;;;;59.10;32.80;;;;;;;0.98;67.87;103640.67;107569;1251;107863;-65
2024/01/30 09:07:34;;;;;;;60.30;31.40;;;;;;;1.36;66.95;103637.02;107619;1250;98074;-66
2024/01/30 09:10:03;;;;;;;62.20;31.60;;;;;;;1.97;66.36;103636.37;107615;1251;98363;-66
2024/01/30 09:12:32;;;;;;;51.20;30.20;;;;;;;2.78;65.39;103629.52;107564;1254;111013;-66
2024/01/30 09:15:00;;;;;;;48.70;29.00;;;;;;;3.67;64.50;103624.95;107578;1251;109634;-64
2024/01/30 09:17:29;;;;;;;55.70;30.20;;;;;;;4.45;63.20;103617.56;107569;1250;108393;-64
2024/01/30 09:19:58;;;;;;;56.30;30.10;;;;;;;5.10;61.29;103616.20;107585;1251;97841;-65
2024/01/30 09:22:27;;;;;;;53.90;27.90;;;;;;;5.62;59.06;103615.84;107596;1251;97869;-65
2024/01/30 09:24:55;;;;;;;46.80;27.90;;;;;;;6.12;59.50;103615.09;107542;1254;111700;-64
2024/01/30 09:27:24;;;;;;;52.30;26.60;;;;;;;6.69;58.83;103608.84;107559;1251;108711;-64
2024/01/30 09:29:53;;;;;;;38.80;24.70;;;;;;;7.26;57.07;103610.66;107592;1251;108322;-64
2024/01/30 09:32:21;;;;;;;43.50;24.50;;;;;;;7.72;54.89;103610.02;107567;1251;97825;-64
2024/01/30 09:34:50;;;;;;;37.60;22.60;;;;;;;8.13;53.12;103611.42;107617;1251;98369;-64
2024/01/30 09:37:18;;;;;;;35.40;21.70;;;;;;;8.48;51.81;103612.77;107571;1254;112395;-64
2024/01/30 09:39:47;;;;;;;39.20;23.10;;;;;;;8.88;50.69;103606.91;107673;1250;108019;-63
2024/01/30 09:42:25;;;;;;;40.60;21.20;;;;;;;9.26;49.97;103606.23;107512;1251;108208;-65
2024/01/30 09:44:54;;;;;;;32.00;21.00;;;;;;;9.71;50.72;103601.83;107532;1251;97823;-67
2024/01/30 09:47:23;;;;;;;34.70;21.80;;;;;;;10.17;50.22;103596.73;107580;1252;97697;-66
2024/01/30 09:49:52;;;;;;;39.60;21.40;;;;;;;10.60;49.76;103594.43;107535;1251;110799;-66
2024/01/30 09:52:20;;;;;;;30.60;22.00;;;;;;;11.05;49.08;103594.44;107469;1251;107751;-64
2024/01/30 09:54:51;;;;;;;39.40;21.00;;;;;;;11.48;48.43;103595.15;107571;1251;108293;-64
2024/01/30 09:57:19;;;;;;;38.50;20.60;;;;;;;11.99;47.77;103594.15;107483;1251;97845;-64
2024/01/30 09:59:48;;;;;;;31.60;19.20;;;;;;;12.58;47.56;103590.98;107617;1251;99560;-66
2024/01/30 10:02:18;;;;;;;31.10;20.10;;;;;;;12.99;44.91;103587.59;107586;1251;112405;-66
2024/01/30 10:04:51;;;;;;;33.10;18.70;;;;;;;13.28;44.22;103582.96;107580;1251;106982;-65
2024/01/30 10:07:20;;;;;;;23.80;17.20;;;;;;;13.54;43.13;103582.27;107456;1251;107091;-64
2024/01/30 10:09:49;;;;;;;27.40;18.30;;;;;;;13.92;41.95;103574.48;107515;1251;97829;-66
2024/01/30 10:12:17;;;;;;;27.00;18.70;;;;;;;14.09;41.35;103572.80;107585;1251;98488;-66
2024/01/30 10:14:45;;;;;;;26.50;18.70;;;;;;;14.32;40.58;103566.39;107643;1251;111363;-67
2024/01/30 10:17:14;;;;;;;30.00;17.70;;;;;;;14.75;41.38;103567.22;107604;1254;105940;-67
2024/01/30 10:19:55;;;;;;;37.10;18.90;;;;;;;15.00;39.07;103560.80;107583;1251;107297;-64
2024/01/30 10:22:24;;;;;;;27.10;18.20;;;;;;;15.02;37.23;103552.22;107542;1254;97845;-66
2024/01/30 10:24:53;;;;;;;31.20;16.40;;;;;;;15.37;38.59;103548.89;107636;1251;97940;-65
2024/01/30 10:27:29;;;;;;;26.30;16.20;;;;;;;15.68;36.92;103549.06;107605;1251;110859;-65
2024/01/30 10:29:58;;;;;;;26.00;16.40;;;;;;;15.94;37.55;103539.77;107573;1251;106025;-64
2024/01/30 10:32:27;;;;;;;30.30;18.60;;;;;;;16.13;36.67;103533.17;107632;1251;108211;-65
2024/01/30 10:34:55;;;;;;;23.90;16.40;;;;;;;16.29;35.04;103527.92;107493;1251;97719;-64
2024/01/30 10:37:26;;;;;;;24.50;17.00;;;;;;;16.17;35.74;103528.64;107545;1251;97848;-65
2024/01/30 10:40:01;;;;;;;24.90;15.50;;;;;;;16.19;33.18;103524.28;107728;1251;110787;-67
2024/01/30 10:42:32;;;;;;;24.20;15.40;;;;;;;16.14;33.96;103524.48;107656;1251;108919;-66
2024/01/30 10:45:08;;;;;;;19.40;14.40;;;;;;;16.28;34.24;103520.23;107550;1251;107182;-66
2024/01/30 10:47:37;;;;;;;24.00;12.50;;;;;;;16.66;35.08;103516.66;107609;1251;97956;-65
2024/01/30 10:50:09;;;;;;;20.80;12.50;;;;;;;17.12;34.14;103512.70;107552;1251;97729;-66
2024/01/30 10:52:38;;;;;;;17.00;10.00;;;;;;;17.38;33.57;103509.66;107534;1251;110451;-66
2024/01/30 10:55:07;;;;;;;22.30;10.70;;;;;;;17.68;31.87;103506.55;107644;1251;107987;-65
2024/01/30 10:57:36;;;;;;;25.00;12.10;;;;;;;17.62;31.62;103511.40;107620;1254;107182;-64
2024/01/30 11:00:12;;;;;;;22.20;11.10;;;;;;;17.77;30.95;103507.52;107612;1251;97813;-65
2024/01/30 11:02:43;;;;;;;14.30;10.80;;;;;;;18.01;30.82;103508.06;107569;1256;97838;-65
2024/01/30 11:05:12;;;;;;;18.20;10.40;;;;;;;17.98;30.33;103501.45;107547;1255;112284;-68